createdAt,value
2018-12-26T00:02:56.353Z,5.87
2018-12-26T00:07:58.217Z,5.91
2018-12-26T00:13:00.056Z,5.76
2018-12-26T00:18:01.899Z,5.86
2018-12-26T00:23:03.811Z,5.85
2018-12-26T00:28:05.646Z,5.85
2018-12-26T00:33:07.580Z,5.71
2018-12-26T00:38:09.440Z,5.85
2018-12-26T00:43:11.504Z,5.70
2018-12-26T00:48:13.505Z,5.81
2018-12-26T00:53:15.642Z,5.81
2018-12-26T00:58:17.676Z,5.83
2018-12-26T01:03:19.727Z,5.78
2018-12-26T01:08:23.060Z,5.78
2018-12-26T01:13:25.900Z,5.84
2018-12-26T01:18:28.392Z,5.64
2018-12-26T01:23:30.482Z,5.65
2018-12-26T01:28:32.327Z,5.74
2018-12-26T01:33:34.262Z,5.60
2018-12-26T01:38:36.467Z,5.60
2018-12-26T01:43:38.343Z,5.63
2018-12-26T01:48:40.683Z,5.63
2018-12-26T01:53:42.603Z,5.44
2018-12-26T01:58:44.427Z,5.36
2018-12-26T02:03:46.257Z,5.47
2018-12-26T02:08:48.279Z,5.41
2018-12-26T02:13:50.132Z,5.56
2018-12-26T02:18:52.038Z,5.62
2018-12-26T02:23:53.944Z,5.53
2018-12-26T02:28:56.795Z,5.56
2018-12-26T02:33:58.740Z,5.58
2018-12-26T02:39:00.818Z,5.64
2018-12-26T02:44:03.040Z,5.44
2018-12-26T02:49:04.913Z,5.33
2018-12-26T02:54:06.815Z,5.25
2018-12-26T02:59:08.777Z,5.14
2018-12-26T03:04:11.624Z,5.14
2018-12-26T03:09:13.491Z,5.39
2018-12-26T03:14:15.459Z,5.35
2018-12-26T03:19:17.382Z,5.20
2018-12-26T03:24:19.356Z,5.33
2018-12-26T03:29:21.199Z,5.33
2018-12-26T03:34:23.313Z,5.37
2018-12-26T03:39:25.568Z,5.27
2018-12-26T03:44:28.337Z,5.42
2018-12-26T03:49:30.511Z,5.04
2018-12-26T03:54:32.840Z,5.36
2018-12-26T03:59:35.043Z,5.25
2018-12-26T04:04:37.509Z,5.26
2018-12-26T04:09:39.599Z,5.26
2018-12-26T04:14:41.759Z,5.25
2018-12-26T04:19:43.778Z,5.25
2018-12-26T04:24:47.262Z,5.25
2018-12-26T04:29:49.110Z,5.05
2018-12-26T04:34:51.065Z,5.21
2018-12-26T04:39:53.205Z,5.06
2018-12-26T04:44:55.983Z,4.81
2018-12-26T04:49:58.166Z,4.81
2018-12-26T04:55:00.058Z,5.07
2018-12-26T05:00:03.044Z,4.95
2018-12-26T05:05:05.039Z,4.85
2018-12-26T05:10:18.578Z,4.85
2018-12-26T05:15:20.526Z,4.78
2018-12-26T05:20:22.417Z,5.02
2018-12-26T05:25:24.503Z,5.02
2018-12-26T05:30:27.658Z,5.01
2018-12-26T05:35:29.634Z,4.97
2018-12-26T05:40:31.583Z,5.04
2018-12-26T05:45:33.531Z,4.88
2018-12-26T05:50:35.487Z,4.92
2018-12-26T05:55:37.343Z,5.04
2018-12-26T06:00:39.201Z,4.97
2018-12-26T06:05:41.363Z,5.08
2018-12-26T06:10:45.533Z,4.83
2018-12-26T06:15:47.433Z,4.97
2018-12-26T06:20:49.663Z,4.97
2018-12-26T06:25:51.521Z,4.86
2018-12-26T06:30:53.385Z,5.04
2018-12-26T06:35:55.567Z,4.84
2018-12-26T06:40:57.536Z,4.67
2018-12-26T06:45:59.376Z,4.68
2018-12-26T06:51:01.293Z,4.71
2018-12-26T06:56:03.180Z,4.65
2018-12-26T07:01:05.066Z,4.57
2018-12-26T07:06:06.916Z,4.50
2018-12-26T07:11:08.786Z,4.40
2018-12-26T07:16:10.650Z,4.46
2018-12-26T07:21:12.566Z,4.28
2018-12-26T07:26:14.434Z,4.06
2018-12-26T07:31:16.314Z,4.36
2018-12-26T07:36:18.180Z,4.30
2018-12-26T07:41:20.076Z,4.12
2018-12-26T07:46:21.934Z,4.31
2018-12-26T07:51:23.808Z,4.35
2018-12-26T07:56:25.712Z,4.28
2018-12-26T08:01:27.564Z,4.20
2018-12-26T08:06:29.411Z,4.43
2018-12-26T08:11:31.375Z,4.13
2018-12-26T08:16:33.633Z,4.27
2018-12-26T08:21:35.506Z,4.29
2018-12-26T08:26:37.386Z,4.37
2018-12-26T08:31:39.268Z,4.41
2018-12-26T08:36:41.124Z,4.14
2018-12-26T08:41:43.032Z,4.54
2018-12-26T08:46:44.896Z,4.47
2018-12-26T08:51:46.762Z,4.53
2018-12-26T08:56:48.820Z,4.46
2018-12-26T09:01:50.691Z,4.08
2018-12-26T09:06:52.540Z,4.45
2018-12-26T09:11:54.752Z,4.36
2018-12-26T09:16:56.652Z,4.23
2018-12-26T09:21:58.550Z,4.30
2018-12-26T09:27:01.081Z,4.30
2018-12-26T09:32:03.023Z,4.54
2018-12-26T09:37:04.894Z,4.40
2018-12-26T09:42:08.812Z,4.19
2018-12-26T09:47:10.680Z,4.37
2018-12-26T09:52:12.675Z,4.04
2018-12-26T09:57:14.740Z,4.30
2018-12-26T10:02:16.691Z,4.36
2018-12-26T10:07:18.652Z,4.19
2018-12-26T10:12:20.635Z,4.19
2018-12-26T10:17:22.634Z,4.25
2018-12-26T10:22:24.612Z,4.30
2018-12-26T10:27:26.616Z,4.46
2018-12-26T10:32:28.491Z,4.52
2018-12-26T10:37:30.425Z,4.37
2018-12-26T10:42:33.306Z,4.57
2018-12-26T10:47:36.474Z,4.52
2018-12-26T10:52:38.425Z,4.56
2018-12-26T10:57:40.347Z,4.34
2018-12-26T11:02:42.244Z,4.42
2018-12-26T11:07:44.160Z,4.13
2018-12-26T11:12:46.132Z,4.34
2018-12-26T11:17:48.110Z,4.19
2018-12-26T11:22:50.043Z,4.26
2018-12-26T11:27:52.992Z,4.30
2018-12-26T11:32:55.006Z,4.42
2018-12-26T11:37:56.945Z,4.46
2018-12-26T11:42:58.908Z,4.52
2018-12-26T11:48:00.774Z,4.44
2018-12-26T11:53:02.711Z,4.39
2018-12-26T11:58:04.694Z,4.49
2018-12-26T12:03:06.895Z,4.48
2018-12-26T12:08:08.841Z,4.58
2018-12-26T12:13:10.780Z,4.58
2018-12-26T12:18:12.695Z,4.57
2018-12-26T12:23:15.639Z,4.65
2018-12-26T12:28:17.660Z,4.58
2018-12-26T12:33:19.750Z,4.42
2018-12-26T12:38:21.699Z,4.40
2018-12-26T12:43:23.646Z,4.52
2018-12-26T12:48:25.732Z,4.62
2018-12-26T12:53:27.559Z,4.60
2018-12-26T12:58:29.439Z,4.75
2018-12-26T13:03:31.428Z,4.85
2018-12-26T13:08:33.270Z,4.89
2018-12-26T13:13:35.213Z,4.91
2018-12-26T13:18:37.158Z,4.66
2018-12-26T13:23:39.045Z,5.05
2018-12-26T13:28:40.922Z,4.94
2018-12-26T13:33:43.214Z,5.12
2018-12-26T13:38:45.902Z,5.08
2018-12-26T13:43:48.080Z,5.05
2018-12-26T13:48:50.122Z,5.13
2018-12-26T13:53:51.984Z,5.13
2018-12-26T13:58:54.000Z,5.20
2018-12-26T14:03:56.060Z,5.24
2018-12-26T14:08:57.919Z,5.39
2018-12-26T14:13:59.844Z,5.31
2018-12-26T14:19:01.820Z,5.35
2018-12-26T14:24:03.673Z,5.24
2018-12-26T14:29:05.791Z,5.21
2018-12-26T14:34:07.621Z,5.21
2018-12-26T14:39:09.625Z,5.27
2018-12-26T14:44:11.530Z,5.38
2018-12-26T14:49:13.409Z,5.41
2018-12-26T14:54:15.254Z,5.38
2018-12-26T14:59:18.296Z,5.24
2018-12-26T15:04:20.714Z,5.38
2018-12-26T15:09:23.050Z,5.27
2018-12-26T15:14:25.230Z,5.21
2018-12-26T15:19:27.410Z,5.26
2018-12-26T15:24:29.667Z,5.45
2018-12-26T15:29:31.704Z,5.45
2018-12-26T15:34:34.188Z,5.39
2018-12-26T15:39:36.345Z,5.39
2018-12-26T15:44:38.286Z,5.39
2018-12-26T15:49:41.534Z,5.49
2018-12-26T15:54:43.613Z,5.49
2018-12-26T15:59:45.715Z,5.46
2018-12-26T16:04:47.964Z,5.30
2018-12-26T16:09:50.313Z,5.36
2018-12-26T16:14:52.512Z,5.36
2018-12-26T16:19:54.399Z,5.61
2018-12-26T16:24:56.779Z,5.60
2018-12-26T16:29:59.697Z,5.61
2018-12-26T16:35:01.713Z,5.61
2018-12-26T16:40:05.590Z,5.75
2018-12-26T16:45:07.556Z,5.67
2018-12-26T16:50:09.426Z,5.41
2018-12-26T16:55:11.395Z,5.65
2018-12-26T17:00:14.999Z,5.76
2018-12-26T17:05:17.125Z,5.86
2018-12-26T17:10:19.171Z,5.71
2018-12-26T17:15:21.344Z,5.66
2018-12-26T17:20:24.270Z,5.66
2018-12-26T17:25:29.121Z,5.63
2018-12-26T17:30:31.050Z,5.66
2018-12-26T17:35:32.922Z,5.67
2018-12-26T17:40:34.795Z,5.74
2018-12-26T17:45:37.019Z,5.75
2018-12-26T17:50:44.497Z,5.61
2018-12-26T17:55:57.259Z,5.80
2018-12-26T18:01:12.856Z,5.89
2018-12-26T18:06:11.687Z,5.59
2018-12-26T18:11:13.917Z,5.67
2018-12-26T18:16:17.928Z,5.67
2018-12-26T18:21:20.936Z,5.74
2018-12-26T18:26:23.159Z,5.91
2018-12-26T18:31:25.123Z,5.91
2018-12-26T18:36:27.091Z,5.86
2018-12-26T18:41:28.932Z,5.93
2018-12-26T18:46:30.792Z,5.74
2018-12-26T18:51:32.672Z,5.97
2018-12-26T18:56:34.511Z,5.94
2018-12-26T19:01:36.400Z,5.92
2018-12-26T19:06:38.371Z,6.05
